sensor_id;sensor_type;location;lat;lon;timestamp;temperature;humidity
67054;SHT31;53960;51.826;5.850;2023-09-30T00:01:49;13.74;89.94
67054;SHT31;53960;51.826;5.850;2023-09-30T00:04:17;13.71;89.93
67054;SHT31;53960;51.826;5.850;2023-09-30T00:06:43;13.70;90.04
67054;SHT31;53960;51.826;5.850;2023-09-30T00:09:08;13.74;89.81
67054;SHT31;53960;51.826;5.850;2023-09-30T00:11:33;13.74;89.83
67054;SHT31;53960;51.826;5.850;2023-09-30T00:14:00;13.70;89.98
67054;SHT31;53960;51.826;5.850;2023-09-30T00:16:25;13.70;90.01
67054;SHT31;53960;51.826;5.850;2023-09-30T00:18:51;13.64;90.35
67054;SHT31;53960;51.826;5.850;2023-09-30T00:21:16;13.71;90.03
67054;SHT31;53960;51.826;5.850;2023-09-30T00:23:42;13.67;89.93
67054;SHT31;53960;51.826;5.850;2023-09-30T00:26:07;13.67;89.72
67054;SHT31;53960;51.826;5.850;2023-09-30T00:28:33;13.73;89.83
67054;SHT31;53960;51.826;5.850;2023-09-30T00:30:58;13.70;89.99
67054;SHT31;53960;51.826;5.850;2023-09-30T00:33:23;13.67;90.30
67054;SHT31;53960;51.826;5.850;2023-09-30T00:35:50;13.68;90.33
67054;SHT31;53960;51.826;5.850;2023-09-30T00:38:15;13.68;90.32
67054;SHT31;53960;51.826;5.850;2023-09-30T00:40:50;13.70;90.21
67054;SHT31;53960;51.826;5.850;2023-09-30T00:43:20;13.71;90.15
67054;SHT31;53960;51.826;5.850;2023-09-30T00:45:49;13.66;90.22
67054;SHT31;53960;51.826;5.850;2023-09-30T00:48:17;13.67;90.12
67054;SHT31;53960;51.826;5.850;2023-09-30T00:50:43;13.64;90.31
67054;SHT31;53960;51.826;5.850;2023-09-30T00:53:08;13.68;90.04
67054;SHT31;53960;51.826;5.850;2023-09-30T00:55:35;13.66;90.09
67054;SHT31;53960;51.826;5.850;2023-09-30T00:58:02;13.61;90.09
67054;SHT31;53960;51.826;5.850;2023-09-30T01:00:27;13.64;90.17
67054;SHT31;53960;51.826;5.850;2023-09-30T01:02:53;13.60;90.22
67054;SHT31;53960;51.826;5.850;2023-09-30T01:05:19;13.61;90.33
67054;SHT31;53960;51.826;5.850;2023-09-30T01:07:44;13.60;90.04
67054;SHT31;53960;51.826;5.850;2023-09-30T01:10:10;13.66;89.72
67054;SHT31;53960;51.826;5.850;2023-09-30T01:12:36;13.59;89.56
67054;SHT31;53960;51.826;5.850;2023-09-30T01:15:02;13.56;89.53
67054;SHT31;53960;51.826;5.850;2023-09-30T01:17:30;13.50;89.57
67054;SHT31;53960;51.826;5.850;2023-09-30T01:19:57;13.51;89.76
67054;SHT31;53960;51.826;5.850;2023-09-30T01:22:24;13.53;89.83
67054;SHT31;53960;51.826;5.850;2023-09-30T01:24:49;13.54;89.75
67054;SHT31;53960;51.826;5.850;2023-09-30T01:27:15;13.47;90.21
67054;SHT31;53960;51.826;5.850;2023-09-30T01:29:43;13.51;89.77
67054;SHT31;53960;51.826;5.850;2023-09-30T01:32:08;13.44;89.72
67054;SHT31;53960;51.826;5.850;2023-09-30T01:34:35;13.49;89.45
67054;SHT31;53960;51.826;5.850;2023-09-30T01:37:01;13.40;89.42
67054;SHT31;53960;51.826;5.850;2023-09-30T01:39:26;13.42;89.69
67054;SHT31;53960;51.826;5.850;2023-09-30T01:41:52;13.35;89.77
67054;SHT31;53960;51.826;5.850;2023-09-30T01:44:19;13.32;89.75
67054;SHT31;53960;51.826;5.850;2023-09-30T01:46:44;13.20;90.21
67054;SHT31;53960;51.826;5.850;2023-09-30T01:49:10;13.26;90.54
67054;SHT31;53960;51.826;5.850;2023-09-30T01:51:35;13.29;90.60
67054;SHT31;53960;51.826;5.850;2023-09-30T01:54:00;13.39;89.70
67054;SHT31;53960;51.826;5.850;2023-09-30T01:56:26;13.35;89.49
67054;SHT31;53960;51.826;5.850;2023-09-30T01:58:51;13.40;89.00
67054;SHT31;53960;51.826;5.850;2023-09-30T02:01:17;13.32;88.86
67054;SHT31;53960;51.826;5.850;2023-09-30T02:03:42;13.29;88.96
67054;SHT31;53960;51.826;5.850;2023-09-30T02:06:08;13.27;88.95
67054;SHT31;53960;51.826;5.850;2023-09-30T02:08:33;13.24;88.93
67054;SHT31;53960;51.826;5.850;2023-09-30T02:11:01;13.16;89.26
67054;SHT31;53960;51.826;5.850;2023-09-30T02:13:27;13.16;89.35
67054;SHT31;53960;51.826;5.850;2023-09-30T02:15:53;13.26;89.63
67054;SHT31;53960;51.826;5.850;2023-09-30T02:18:21;13.16;90.11
67054;SHT31;53960;51.826;5.850;2023-09-30T02:20:46;13.13;90.67
67054;SHT31;53960;51.826;5.850;2023-09-30T02:23:12;13.09;90.97
67054;SHT31;53960;51.826;5.850;2023-09-30T02:25:38;13.16;90.99
67054;SHT31;53960;51.826;5.850;2023-09-30T02:28:06;13.19;90.95
67054;SHT31;53960;51.826;5.850;2023-09-30T02:30:32;13.18;90.89
67054;SHT31;53960;51.826;5.850;2023-09-30T02:32:57;13.20;90.82
67054;SHT31;53960;51.826;5.850;2023-09-30T02:35:22;13.29;90.33
67054;SHT31;53960;51.826;5.850;2023-09-30T02:37:48;13.24;90.64
67054;SHT31;53960;51.826;5.850;2023-09-30T02:40:17;13.32;90.54
67054;SHT31;53960;51.826;5.850;2023-09-30T02:42:42;13.27;90.87
67054;SHT31;53960;51.826;5.850;2023-09-30T02:45:09;13.29;90.82
67054;SHT31;53960;51.826;5.850;2023-09-30T02:47:35;13.29;90.84
67054;SHT31;53960;51.826;5.850;2023-09-30T02:50:02;13.29;90.92
67054;SHT31;53960;51.826;5.850;2023-09-30T02:52:28;13.24;91.15
67054;SHT31;53960;51.826;5.850;2023-09-30T02:54:54;13.27;90.93
67054;SHT31;53960;51.826;5.850;2023-09-30T02:57:20;13.29;91.24
67054;SHT31;53960;51.826;5.850;2023-09-30T02:59:46;13.30;91.35
67054;SHT31;53960;51.826;5.850;2023-09-30T03:02:12;13.30;91.57
67054;SHT31;53960;51.826;5.850;2023-09-30T03:04:37;13.36;91.38
67054;SHT31;53960;51.826;5.850;2023-09-30T03:07:02;13.40;91.13
67054;SHT31;53960;51.826;5.850;2023-09-30T03:09:28;13.39;91.25
67054;SHT31;53960;51.826;5.850;2023-09-30T03:11:53;13.38;91.15
67054;SHT31;53960;51.826;5.850;2023-09-30T03:14:21;13.44;90.77
67054;SHT31;53960;51.826;5.850;2023-09-30T03:16:48;13.47;90.62
67054;SHT31;53960;51.826;5.850;2023-09-30T03:19:13;13.46;91.13
67054;SHT31;53960;51.826;5.850;2023-09-30T03:21:41;13.50;91.39
67054;SHT31;53960;51.826;5.850;2023-09-30T03:24:07;13.53;91.31
67054;SHT31;53960;51.826;5.850;2023-09-30T03:26:33;13.53;91.37
67054;SHT31;53960;51.826;5.850;2023-09-30T03:28:59;13.46;91.43
67054;SHT31;53960;51.826;5.850;2023-09-30T03:31:24;13.44;91.53
67054;SHT31;53960;51.826;5.850;2023-09-30T03:33:50;13.47;91.54
67054;SHT31;53960;51.826;5.850;2023-09-30T03:36:22;13.51;91.33
67054;SHT31;53960;51.826;5.850;2023-09-30T03:38:51;13.46;91.55
67054;SHT31;53960;51.826;5.850;2023-09-30T03:41:19;13.50;91.59
67054;SHT31;53960;51.826;5.850;2023-09-30T03:43:44;13.50;91.58
67054;SHT31;53960;51.826;5.850;2023-09-30T03:46:10;13.51;91.57
67054;SHT31;53960;51.826;5.850;2023-09-30T03:48:37;13.56;91.44
67054;SHT31;53960;51.826;5.850;2023-09-30T03:51:14;13.51;91.78
67054;SHT31;53960;51.826;5.850;2023-09-30T03:53:43;13.53;91.70
67054;SHT31;53960;51.826;5.850;2023-09-30T03:56:10;13.54;91.72
67054;SHT31;53960;51.826;5.850;2023-09-30T03:58:42;13.47;91.99
67054;SHT31;53960;51.826;5.850;2023-09-30T04:01:11;13.46;92.06
67054;SHT31;53960;51.826;5.850;2023-09-30T04:03:37;13.49;92.13
67054;SHT31;53960;51.826;5.850;2023-09-30T04:06:05;13.49;92.16
67054;SHT31;53960;51.826;5.850;2023-09-30T04:08:32;13.53;91.93
67054;SHT31;53960;51.826;5.850;2023-09-30T04:10:59;13.46;92.11
67054;SHT31;53960;51.826;5.850;2023-09-30T04:13:25;13.46;92.23
67054;SHT31;53960;51.826;5.850;2023-09-30T04:15:50;13.49;92.26
67054;SHT31;53960;51.826;5.850;2023-09-30T04:18:16;13.49;92.09
67054;SHT31;53960;51.826;5.850;2023-09-30T04:20:41;13.35;92.50
67054;SHT31;53960;51.826;5.850;2023-09-30T04:23:07;13.32;92.56
67054;SHT31;53960;51.826;5.850;2023-09-30T04:25:35;13.39;92.45
67054;SHT31;53960;51.826;5.850;2023-09-30T04:28:00;13.36;92.58
67054;SHT31;53960;51.826;5.850;2023-09-30T04:30:26;13.42;92.44
67054;SHT31;53960;51.826;5.850;2023-09-30T04:32:52;13.38;92.38
67054;SHT31;53960;51.826;5.850;2023-09-30T04:35:18;13.32;92.69
67054;SHT31;53960;51.826;5.850;2023-09-30T04:37:43;13.36;92.57
67054;SHT31;53960;51.826;5.850;2023-09-30T04:40:09;13.40;92.39
67054;SHT31;53960;51.826;5.850;2023-09-30T04:42:42;13.40;92.30
67054;SHT31;53960;51.826;5.850;2023-09-30T04:45:10;13.36;92.37
67054;SHT31;53960;51.826;5.850;2023-09-30T04:47:36;13.40;92.38
67054;SHT31;53960;51.826;5.850;2023-09-30T04:50:03;13.38;92.34
67054;SHT31;53960;51.826;5.850;2023-09-30T04:52:30;13.36;92.43
67054;SHT31;53960;51.826;5.850;2023-09-30T04:54:56;13.39;92.37
67054;SHT31;53960;51.826;5.850;2023-09-30T04:57:21;13.36;92.34
67054;SHT31;53960;51.826;5.850;2023-09-30T04:59:47;13.33;92.46
67054;SHT31;53960;51.826;5.850;2023-09-30T05:02:12;13.35;92.43
67054;SHT31;53960;51.826;5.850;2023-09-30T05:04:40;13.32;92.51
67054;SHT31;53960;51.826;5.850;2023-09-30T05:07:06;13.32;92.38
67054;SHT31;53960;51.826;5.850;2023-09-30T05:09:32;13.27;92.66
67054;SHT31;53960;51.826;5.850;2023-09-30T05:11:57;13.27;92.71
67054;SHT31;53960;51.826;5.850;2023-09-30T05:14:23;13.29;92.51
67054;SHT31;53960;51.826;5.850;2023-09-30T05:16:48;13.30;92.57
67054;SHT31;53960;51.826;5.850;2023-09-30T05:19:13;13.24;92.77
67054;SHT31;53960;51.826;5.850;2023-09-30T05:21:39;13.24;92.80
67054;SHT31;53960;51.826;5.850;2023-09-30T05:24:05;13.26;92.85
67054;SHT31;53960;51.826;5.850;2023-09-30T05:26:31;13.22;92.99
67054;SHT31;53960;51.826;5.850;2023-09-30T05:28:57;13.24;92.83
67054;SHT31;53960;51.826;5.850;2023-09-30T05:31:24;13.30;92.73
67054;SHT31;53960;51.826;5.850;2023-09-30T05:33:50;13.26;92.73
67054;SHT31;53960;51.826;5.850;2023-09-30T05:36:15;13.29;92.72
67054;SHT31;53960;51.826;5.850;2023-09-30T05:38:41;13.30;92.76
67054;SHT31;53960;51.826;5.850;2023-09-30T05:41:07;13.22;92.90
67054;SHT31;53960;51.826;5.850;2023-09-30T05:43:33;13.20;92.95
67054;SHT31;53960;51.826;5.850;2023-09-30T05:45:58;13.27;92.80
67054;SHT31;53960;51.826;5.850;2023-09-30T05:48:24;13.26;92.87
67054;SHT31;53960;51.826;5.850;2023-09-30T05:50:50;13.29;92.79
67054;SHT31;53960;51.826;5.850;2023-09-30T05:53:15;13.22;92.88
67054;SHT31;53960;51.826;5.850;2023-09-30T05:55:41;13.19;93.02
67054;SHT31;53960;51.826;5.850;2023-09-30T05:58:09;13.24;93.06
67054;SHT31;53960;51.826;5.850;2023-09-30T06:00:34;13.26;92.92
67054;SHT31;53960;51.826;5.850;2023-09-30T06:03:00;13.19;93.11
67054;SHT31;53960;51.826;5.850;2023-09-30T06:05:26;13.20;93.02
67054;SHT31;53960;51.826;5.850;2023-09-30T06:07:54;13.20;92.92
67054;SHT31;53960;51.826;5.850;2023-09-30T06:10:20;13.18;92.95
67054;SHT31;53960;51.826;5.850;2023-09-30T06:12:47;13.18;93.02
67054;SHT31;53960;51.826;5.850;2023-09-30T06:15:14;13.13;93.05
67054;SHT31;53960;51.826;5.850;2023-09-30T06:17:40;13.20;92.99
67054;SHT31;53960;51.826;5.850;2023-09-30T06:20:06;13.23;92.81
67054;SHT31;53960;51.826;5.850;2023-09-30T06:22:44;13.13;93.09
67054;SHT31;53960;51.826;5.850;2023-09-30T06:25:19;13.19;93.07
67054;SHT31;53960;51.826;5.850;2023-09-30T06:27:46;13.23;92.95
67054;SHT31;53960;51.826;5.850;2023-09-30T06:30:13;13.18;93.14
67054;SHT31;53960;51.826;5.850;2023-09-30T06:32:39;13.20;93.16
67054;SHT31;53960;51.826;5.850;2023-09-30T06:35:06;13.24;93.05
67054;SHT31;53960;51.826;5.850;2023-09-30T06:37:32;13.30;93.09
67054;SHT31;53960;51.826;5.850;2023-09-30T06:39:58;13.30;92.97
67054;SHT31;53960;51.826;5.850;2023-09-30T06:42:24;13.35;93.13
67054;SHT31;53960;51.826;5.850;2023-09-30T06:44:49;13.38;93.14
67054;SHT31;53960;51.826;5.850;2023-09-30T06:47:15;13.43;93.11
67054;SHT31;53960;51.826;5.850;2023-09-30T06:49:41;13.47;93.10
67054;SHT31;53960;51.826;5.850;2023-09-30T06:52:07;13.46;93.22
67054;SHT31;53960;51.826;5.850;2023-09-30T06:54:32;13.51;93.22
67054;SHT31;53960;51.826;5.850;2023-09-30T06:56:58;13.59;93.10
67054;SHT31;53960;51.826;5.850;2023-09-30T06:59:23;13.75;92.80
67054;SHT31;53960;51.826;5.850;2023-09-30T07:01:50;13.73;93.03
67054;SHT31;53960;51.826;5.850;2023-09-30T07:04:16;13.80;92.99
67054;SHT31;53960;51.826;5.850;2023-09-30T07:06:41;13.82;93.03
67054;SHT31;53960;51.826;5.850;2023-09-30T07:09:06;13.81;93.15
67054;SHT31;53960;51.826;5.850;2023-09-30T07:11:32;13.84;93.05
67054;SHT31;53960;51.826;5.850;2023-09-30T07:13:58;13.95;92.96
67054;SHT31;53960;51.826;5.850;2023-09-30T07:16:23;13.98;93.08
67054;SHT31;53960;51.826;5.850;2023-09-30T07:18:49;14.04;93.10
67054;SHT31;53960;51.826;5.850;2023-09-30T07:21:15;14.08;93.20
67054;SHT31;53960;51.826;5.850;2023-09-30T07:23:41;14.15;92.93
67054;SHT31;53960;51.826;5.850;2023-09-30T07:26:06;14.22;92.81
67054;SHT31;53960;51.826;5.850;2023-09-30T07:28:33;14.24;92.85
67054;SHT31;53960;51.826;5.850;2023-09-30T07:30:58;14.22;93.23
67054;SHT31;53960;51.826;5.850;2023-09-30T07:33:23;14.35;92.91
67054;SHT31;53960;51.826;5.850;2023-09-30T07:35:49;14.35;93.21
67054;SHT31;53960;51.826;5.850;2023-09-30T07:38:14;14.39;93.47
67054;SHT31;53960;51.826;5.850;2023-09-30T07:40:40;14.45;93.43
67054;SHT31;53960;51.826;5.850;2023-09-30T07:43:05;14.57;93.16
67054;SHT31;53960;51.826;5.850;2023-09-30T07:45:30;14.62;92.92
67054;SHT31;53960;51.826;5.850;2023-09-30T07:47:56;14.70;92.67
67054;SHT31;53960;51.826;5.850;2023-09-30T07:50:23;14.72;92.70
67054;SHT31;53960;51.826;5.850;2023-09-30T07:52:49;14.73;92.92
67054;SHT31;53960;51.826;5.850;2023-09-30T07:55:14;14.76;92.84
67054;SHT31;53960;51.826;5.850;2023-09-30T07:57:41;14.79;92.59
67054;SHT31;53960;51.826;5.850;2023-09-30T08:00:08;14.81;92.66
67054;SHT31;53960;51.826;5.850;2023-09-30T08:02:35;14.86;92.55
67054;SHT31;53960;51.826;5.850;2023-09-30T08:05:01;14.83;92.86
67054;SHT31;53960;51.826;5.850;2023-09-30T08:07:27;14.83;93.00
67054;SHT31;53960;51.826;5.850;2023-09-30T08:09:52;14.84;92.86
67054;SHT31;53960;51.826;5.850;2023-09-30T08:12:17;14.80;92.99
67054;SHT31;53960;51.826;5.850;2023-09-30T08:14:43;14.79;93.17
67054;SHT31;53960;51.826;5.850;2023-09-30T08:17:11;14.86;93.13
67054;SHT31;53960;51.826;5.850;2023-09-30T08:19:37;14.83;93.16
67054;SHT31;53960;51.826;5.850;2023-09-30T08:22:02;14.90;93.29
67054;SHT31;53960;51.826;5.850;2023-09-30T08:24:29;15.01;93.33
67054;SHT31;53960;51.826;5.850;2023-09-30T08:26:54;15.06;93.15
67054;SHT31;53960;51.826;5.850;2023-09-30T08:29:21;15.11;93.42
67054;SHT31;53960;51.826;5.850;2023-09-30T08:31:47;15.18;93.53
67054;SHT31;53960;51.826;5.850;2023-09-30T08:34:14;15.25;93.33
67054;SHT31;53960;51.826;5.850;2023-09-30T08:36:43;15.31;93.18
67054;SHT31;53960;51.826;5.850;2023-09-30T08:39:08;15.35;93.11
67054;SHT31;53960;51.826;5.850;2023-09-30T08:41:38;15.45;92.79
67054;SHT31;53960;51.826;5.850;2023-09-30T08:44:04;15.58;92.24
67054;SHT31;53960;51.826;5.850;2023-09-30T08:46:33;15.61;92.65
67054;SHT31;53960;51.826;5.850;2023-09-30T08:49:01;15.70;92.48
67054;SHT31;53960;51.826;5.850;2023-09-30T08:51:28;15.72;92.40
67054;SHT31;53960;51.826;5.850;2023-09-30T08:53:55;15.79;91.99
67054;SHT31;53960;51.826;5.850;2023-09-30T08:56:30;15.79;91.59
67054;SHT31;53960;51.826;5.850;2023-09-30T08:58:57;15.87;91.14
67054;SHT31;53960;51.826;5.850;2023-09-30T09:01:24;15.89;91.15
67054;SHT31;53960;51.826;5.850;2023-09-30T09:03:50;15.95;91.10
67054;SHT31;53960;51.826;5.850;2023-09-30T09:06:18;16.02;91.00
67054;SHT31;53960;51.826;5.850;2023-09-30T09:08:44;16.07;91.14
67054;SHT31;53960;51.826;5.850;2023-09-30T09:11:09;16.14;90.94
67054;SHT31;53960;51.826;5.850;2023-09-30T09:16:15;16.33;90.79
67054;SHT31;53960;51.826;5.850;2023-09-30T09:18:41;16.31;90.51
67054;SHT31;53960;51.826;5.850;2023-09-30T09:21:08;16.37;89.95
67054;SHT31;53960;51.826;5.850;2023-09-30T09:23:42;16.41;90.43
67054;SHT31;53960;51.826;5.850;2023-09-30T09:26:09;16.51;89.75
67054;SHT31;53960;51.826;5.850;2023-09-30T09:28:35;16.53;89.73
67054;SHT31;53960;51.826;5.850;2023-09-30T09:31:02;16.58;89.55
67054;SHT31;53960;51.826;5.850;2023-09-30T09:33:37;16.58;88.82
67054;SHT31;53960;51.826;5.850;2023-09-30T09:36:03;16.64;88.78
67054;SHT31;53960;51.826;5.850;2023-09-30T09:38:43;16.71;88.09
67054;SHT31;53960;51.826;5.850;2023-09-30T09:41:08;16.75;88.59
67054;SHT31;53960;51.826;5.850;2023-09-30T09:43:36;16.85;88.24
67054;SHT31;53960;51.826;5.850;2023-09-30T09:46:04;16.84;87.79
67054;SHT31;53960;51.826;5.850;2023-09-30T09:48:33;16.91;87.81
67054;SHT31;53960;51.826;5.850;2023-09-30T09:51:01;16.98;87.80
67054;SHT31;53960;51.826;5.850;2023-09-30T09:53:31;16.99;87.58
67054;SHT31;53960;51.826;5.850;2023-09-30T09:55:59;17.05;87.95
67054;SHT31;53960;51.826;5.850;2023-09-30T09:58:27;17.13;87.80
67054;SHT31;53960;51.826;5.850;2023-09-30T10:00:53;17.16;88.07
67054;SHT31;53960;51.826;5.850;2023-09-30T10:03:18;17.27;87.42
67054;SHT31;53960;51.826;5.850;2023-09-30T10:05:44;17.30;86.36
67054;SHT31;53960;51.826;5.850;2023-09-30T10:08:16;17.33;87.03
67054;SHT31;53960;51.826;5.850;2023-09-30T10:10:44;17.42;87.45
67054;SHT31;53960;51.826;5.850;2023-09-30T10:19:21;17.75;85.67
67054;SHT31;53960;51.826;5.850;2023-09-30T10:24:44;17.94;85.03
67054;SHT31;53960;51.826;5.850;2023-09-30T10:29:48;17.88;82.24
67054;SHT31;53960;51.826;5.850;2023-09-30T10:32:15;17.90;82.26
67054;SHT31;53960;51.826;5.850;2023-09-30T10:34:48;17.85;82.32
67054;SHT31;53960;51.826;5.850;2023-09-30T10:37:23;17.87;82.68
67054;SHT31;53960;51.826;5.850;2023-09-30T10:39:54;17.84;82.53
67054;SHT31;53960;51.826;5.850;2023-09-30T10:51:18;18.02;81.44
67054;SHT31;53960;51.826;5.850;2023-09-30T10:53:51;18.00;81.47
67054;SHT31;53960;51.826;5.850;2023-09-30T10:56:18;18.16;80.51
67054;SHT31;53960;51.826;5.850;2023-09-30T10:58:49;18.29;80.00
67054;SHT31;53960;51.826;5.850;2023-09-30T11:01:16;18.43;78.73
67054;SHT31;53960;51.826;5.850;2023-09-30T11:03:43;18.57;78.50
67054;SHT31;53960;51.826;5.850;2023-09-30T11:06:11;18.59;77.58
67054;SHT31;53960;51.826;5.850;2023-09-30T11:08:41;18.45;77.49
67054;SHT31;53960;51.826;5.850;2023-09-30T11:11:09;18.42;77.91
67054;SHT31;53960;51.826;5.850;2023-09-30T11:13:36;18.35;77.53
67054;SHT31;53960;51.826;5.850;2023-09-30T11:16:03;18.25;78.85
67054;SHT31;53960;51.826;5.850;2023-09-30T11:18:31;18.24;78.46
67054;SHT31;53960;51.826;5.850;2023-09-30T11:23:31;18.48;78.18
67054;SHT31;53960;51.826;5.850;2023-09-30T11:25:56;18.43;77.97
67054;SHT31;53960;51.826;5.850;2023-09-30T11:28:22;18.41;78.30
67054;SHT31;53960;51.826;5.850;2023-09-30T11:31:00;18.45;78.00
67054;SHT31;53960;51.826;5.850;2023-09-30T11:33:31;18.64;77.52
67054;SHT31;53960;51.826;5.850;2023-09-30T11:36:03;18.83;76.85
67054;SHT31;53960;51.826;5.850;2023-09-30T11:38:29;18.99;76.49
67054;SHT31;53960;51.826;5.850;2023-09-30T11:41:05;19.18;76.82
67054;SHT31;53960;51.826;5.850;2023-09-30T11:43:35;19.25;74.63
67054;SHT31;53960;51.826;5.850;2023-09-30T11:46:08;19.36;72.90
67054;SHT31;53960;51.826;5.850;2023-09-30T11:48:34;19.41;72.08
67054;SHT31;53960;51.826;5.850;2023-09-30T11:51:00;19.52;73.53
67054;SHT31;53960;51.826;5.850;2023-09-30T11:53:29;19.54;72.04
67054;SHT31;53960;51.826;5.850;2023-09-30T11:55:56;19.58;72.52
67054;SHT31;53960;51.826;5.850;2023-09-30T11:58:23;19.66;72.31
67054;SHT31;53960;51.826;5.850;2023-09-30T12:00:49;19.66;71.35
67054;SHT31;53960;51.826;5.850;2023-09-30T12:03:17;19.72;72.03
67054;SHT31;53960;51.826;5.850;2023-09-30T12:05:42;19.78;71.40
67054;SHT31;53960;51.826;5.850;2023-09-30T12:08:11;19.69;69.54
67054;SHT31;53960;51.826;5.850;2023-09-30T12:10:36;19.78;70.04
67054;SHT31;53960;51.826;5.850;2023-09-30T12:13:02;19.75;70.41
67054;SHT31;53960;51.826;5.850;2023-09-30T12:15:28;19.83;70.64
67054;SHT31;53960;51.826;5.850;2023-09-30T12:17:54;19.86;71.35
67054;SHT31;53960;51.826;5.850;2023-09-30T12:20:19;19.92;72.00
67054;SHT31;53960;51.826;5.850;2023-09-30T12:22:45;19.75;68.76
67054;SHT31;53960;51.826;5.850;2023-09-30T12:25:11;19.52;70.24
67054;SHT31;53960;51.826;5.850;2023-09-30T12:27:36;19.52;71.07
67054;SHT31;53960;51.826;5.850;2023-09-30T12:30:06;19.42;71.99
67054;SHT31;53960;51.826;5.850;2023-09-30T12:32:32;19.47;71.98
67054;SHT31;53960;51.826;5.850;2023-09-30T12:34:57;19.59;71.05
67054;SHT31;53960;51.826;5.850;2023-09-30T12:37:23;19.62;69.91
67054;SHT31;53960;51.826;5.850;2023-09-30T12:39:48;19.63;69.18
67054;SHT31;53960;51.826;5.850;2023-09-30T12:42:13;19.57;68.82
67054;SHT31;53960;51.826;5.850;2023-09-30T12:44:40;19.52;69.91
67054;SHT31;53960;51.826;5.850;2023-09-30T12:47:06;19.47;69.38
67054;SHT31;53960;51.826;5.850;2023-09-30T12:49:31;19.44;70.08
67054;SHT31;53960;51.826;5.850;2023-09-30T12:51:57;19.42;70.15
67054;SHT31;53960;51.826;5.850;2023-09-30T12:54:26;19.34;70.63
67054;SHT31;53960;51.826;5.850;2023-09-30T12:56:51;19.27;71.52
67054;SHT31;53960;51.826;5.850;2023-09-30T12:59:17;19.30;72.00
67054;SHT31;53960;51.826;5.850;2023-09-30T13:01:46;19.32;71.05
67054;SHT31;53960;51.826;5.850;2023-09-30T13:04:12;19.34;70.91
67054;SHT31;53960;51.826;5.850;2023-09-30T13:06:38;19.32;72.32
67054;SHT31;53960;51.826;5.850;2023-09-30T13:09:03;19.34;72.29
67054;SHT31;53960;51.826;5.850;2023-09-30T13:11:34;19.41;72.02
67054;SHT31;53960;51.826;5.850;2023-09-30T13:13:59;19.45;71.56
67054;SHT31;53960;51.826;5.850;2023-09-30T13:16:24;19.42;71.60
67054;SHT31;53960;51.826;5.850;2023-09-30T13:18:50;19.45;71.59
67054;SHT31;53960;51.826;5.850;2023-09-30T13:21:17;19.51;72.03
67054;SHT31;53960;51.826;5.850;2023-09-30T13:23:43;19.47;72.24
67054;SHT31;53960;51.826;5.850;2023-09-30T13:26:08;19.39;72.27
67054;SHT31;53960;51.826;5.850;2023-09-30T13:28:34;19.34;71.90
67054;SHT31;53960;51.826;5.850;2023-09-30T13:31:00;19.31;71.78
67054;SHT31;53960;51.826;5.850;2023-09-30T13:33:25;19.25;72.51
67054;SHT31;53960;51.826;5.850;2023-09-30T13:35:51;19.22;72.66
67054;SHT31;53960;51.826;5.850;2023-09-30T13:38:16;19.25;72.95
67054;SHT31;53960;51.826;5.850;2023-09-30T13:40:42;19.27;73.98
67054;SHT31;53960;51.826;5.850;2023-09-30T13:43:07;19.28;71.99
67054;SHT31;53960;51.826;5.850;2023-09-30T13:45:33;19.28;72.57
67054;SHT31;53960;51.826;5.850;2023-09-30T13:47:59;19.25;72.72
67054;SHT31;53960;51.826;5.850;2023-09-30T13:50:25;19.31;72.12
67054;SHT31;53960;51.826;5.850;2023-09-30T13:52:50;19.24;72.06
67054;SHT31;53960;51.826;5.850;2023-09-30T13:55:15;19.21;71.54
67054;SHT31;53960;51.826;5.850;2023-09-30T13:57:45;19.25;71.98
67054;SHT31;53960;51.826;5.850;2023-09-30T14:00:11;19.34;72.40
67054;SHT31;53960;51.826;5.850;2023-09-30T14:02:37;19.32;71.52
67054;SHT31;53960;51.826;5.850;2023-09-30T14:05:04;19.36;71.77
67054;SHT31;53960;51.826;5.850;2023-09-30T14:07:29;19.44;72.45
67054;SHT31;53960;51.826;5.850;2023-09-30T14:09:55;19.44;71.53
67054;SHT31;53960;51.826;5.850;2023-09-30T14:12:20;19.57;72.07
67054;SHT31;53960;51.826;5.850;2023-09-30T14:14:47;19.58;72.72
67054;SHT31;53960;51.826;5.850;2023-09-30T14:17:12;19.54;72.56
67054;SHT31;53960;51.826;5.850;2023-09-30T14:19:40;19.42;71.95
67054;SHT31;53960;51.826;5.850;2023-09-30T14:22:06;19.38;72.90
67054;SHT31;53960;51.826;5.850;2023-09-30T14:24:33;19.39;72.48
67054;SHT31;53960;51.826;5.850;2023-09-30T14:27:03;19.44;72.59
67054;SHT31;53960;51.826;5.850;2023-09-30T14:29:28;19.44;73.36
67054;SHT31;53960;51.826;5.850;2023-09-30T14:31:54;19.51;73.25
67054;SHT31;53960;51.826;5.850;2023-09-30T14:34:20;19.58;73.15
67054;SHT31;53960;51.826;5.850;2023-09-30T14:36:45;19.59;72.69
67054;SHT31;53960;51.826;5.850;2023-09-30T14:39:11;19.59;72.33
67054;SHT31;53960;51.826;5.850;2023-09-30T14:41:36;19.59;72.32
67054;SHT31;53960;51.826;5.850;2023-09-30T14:44:02;19.55;70.95
67054;SHT31;53960;51.826;5.850;2023-09-30T14:46:33;19.45;71.39
67054;SHT31;53960;51.826;5.850;2023-09-30T14:48:59;19.38;70.34
67054;SHT31;53960;51.826;5.850;2023-09-30T14:51:25;19.32;71.05
67054;SHT31;53960;51.826;5.850;2023-09-30T14:53:50;19.31;70.30
67054;SHT31;53960;51.826;5.850;2023-09-30T14:56:17;19.30;70.65
67054;SHT31;53960;51.826;5.850;2023-09-30T14:58:43;19.31;70.73
67054;SHT31;53960;51.826;5.850;2023-09-30T15:01:09;19.28;71.46
67054;SHT31;53960;51.826;5.850;2023-09-30T15:03:34;19.24;71.54
67054;SHT31;53960;51.826;5.850;2023-09-30T15:06:03;19.28;70.53
67054;SHT31;53960;51.826;5.850;2023-09-30T15:08:32;19.25;71.27
67054;SHT31;53960;51.826;5.850;2023-09-30T15:11:01;19.21;71.64
67054;SHT31;53960;51.826;5.850;2023-09-30T15:13:27;19.22;71.66
67054;SHT31;53960;51.826;5.850;2023-09-30T15:15:53;19.28;71.74
67054;SHT31;53960;51.826;5.850;2023-09-30T15:18:18;19.22;72.57
67054;SHT31;53960;51.826;5.850;2023-09-30T15:20:44;19.21;72.01
67054;SHT31;53960;51.826;5.850;2023-09-30T15:23:10;19.17;72.55
67054;SHT31;53960;51.826;5.850;2023-09-30T15:25:42;19.12;73.69
67054;SHT31;53960;51.826;5.850;2023-09-30T15:28:10;19.07;72.85
67054;SHT31;53960;51.826;5.850;2023-09-30T15:30:35;19.08;73.84
67054;SHT31;53960;51.826;5.850;2023-09-30T15:33:01;19.04;74.06
67054;SHT31;53960;51.826;5.850;2023-09-30T15:35:27;19.07;73.78
67054;SHT31;53960;51.826;5.850;2023-09-30T15:37:53;18.99;74.51
67054;SHT31;53960;51.826;5.850;2023-09-30T15:40:18;19.01;73.97
67054;SHT31;53960;51.826;5.850;2023-09-30T15:42:44;18.99;74.17
67054;SHT31;53960;51.826;5.850;2023-09-30T15:45:11;19.00;73.29
67054;SHT31;53960;51.826;5.850;2023-09-30T15:47:38;18.97;73.44
67054;SHT31;53960;51.826;5.850;2023-09-30T15:50:04;18.97;73.36
67054;SHT31;53960;51.826;5.850;2023-09-30T15:52:31;18.93;73.08